Flight Track Log - Related Links

Times and Time Zones

All times are in EDT time to prevent confusion due to time zone crossing. See the SKW6534 flight status page for this flight to view local times or setup timezone preferences in your user account.

Time Position Orientation Groundspeed Altitude Reporting Facility
EDT Latitude Longitude Course Direction KTS MPH feet Rate Location/Type
Tue 01:32:02 PM 39.9167 -104.6833 346° North 176 203 6,700  Level Denver TRACON
Tue 01:33:02 PM 39.9833 -104.6667 11° North 259 298 8,500 2,105 Climbing Denver TRACON
Tue 01:33:56 PM 40.0500 -104.6667 360° North 285 328 10,700 2,218 Climbing Denver TRACON
Tue 01:34:00 PM 40.1418 -104.7637 344° North  Level FlightAware Approximate
Tue 01:35:00 PM 40.2398 -104.7936 347° North  Level FlightAware Approximate
Tue 01:35:01 PM 40.1458 -104.6819 353° North 307 353 12,900  Level Denver Center
Tue 01:36:00 PM 40.3377 -104.8237 346° North  Level FlightAware Approximate
Tue 01:36:03 PM 40.2350 -104.7064 348° North 324 373 14,900  Level Denver Center
Tue 01:37:00 PM 40.4352 -104.8562 346° North  Level FlightAware Approximate
Tue 01:37:05 PM 40.3297 -104.7294 349° North 344 396 16,900  Level Denver Center
Tue 01:38:07 PM 40.4294 -104.7564 348° North 340 391 19,200 1,632 Climbing Denver Center
Tue 01:39:21 PM 40.5239 -104.7806 349° North 346 398 20,600 1,139 Climbing Denver Center
Tue 01:40:24 PM 40.6461 -104.8150 348° North 369 425 21,800 1,296 Climbing Denver Center
Tue 01:41:26 PM 40.7578 -104.8400 350° North 361 415 23,300 1,258 Climbing Denver Center
Tue 01:42:28 PM 40.8536 -104.8822 342° North 370 426 24,400 1,073 Climbing Denver Center
Tue 01:43:29 PM 40.9508 -104.9292 340° North 381 438 25,500 927 Climbing Denver Center
Tue 01:44:31 PM 41.0669 -104.9872 339° North 395 455 26,300 677 Climbing Denver Center
Tue 01:45:33 PM 41.1692 -105.0353 341° North 403 464 26,900 618 Climbing Denver Center
Tue 01:46:47 PM 41.2569 -105.1508 315° West 393 452 27,700 745 Climbing Denver Center
Tue 01:47:50 PM 41.3311 -105.3000 304° West 382 440 28,600 768 Climbing Denver Center
Tue 01:48:52 PM 41.3733 -105.4167 296° West 369 425 29,300 629 Climbing Denver Center
Tue 01:49:54 PM 41.4153 -105.5344 295° West 366 421 29,900 726 Climbing Denver Center
Tue 01:50:56 PM 41.4650 -105.6717 296° West 368 423 30,800 823 Climbing Denver Center
Tue 01:51:58 PM 41.5067 -105.7861 296° West 361 415 31,600 585 Climbing Denver Center
Tue 01:52:59 PM 41.5544 -105.9231 295° West 363 418 32,000 178 Climbing Denver Center
Tue 01:54:13 PM 41.5961 -106.0397 296° West 363 418 32,000  Level Denver Center
Tue 01:55:16 PM 41.6506 -106.1947 295° West 362 417 32,000  Level Denver Center
Tue 01:56:30 PM 41.6942 -106.3153 296° West 371 427 32,000  Level Denver Center
Tue 01:57:32 PM 41.7503 -106.4761 295° West 374 430 32,000  Level Denver Center
Tue 01:58:34 PM 41.7950 -106.6047 295° West 376 433 32,000  Level Denver Center
Tue 01:59:36 PM 41.8447 -106.7464 295° West 376 433 32,000  Level Denver Center
Tue 02:00:38 PM 41.8861 -106.8667 295° West 373 429 32,000  Level Denver Center
Tue 02:01:40 PM 41.9350 -107.0086 295° West 375 432 32,000  Level Denver Center
Tue 02:02:42 PM 41.9767 -107.1294 295° West 374 430 32,000  Level Denver Center
Tue 02:03:44 PM 42.0256 -107.2711 295° West 374 430 32,000  Level Denver Center
Tue 02:04:46 PM 42.0647 -107.3917 294° West 370 426 32,000  Level Denver Center
Tue 02:05:48 PM 42.1108 -107.5317 294° West 366 421 32,000  Level Denver Center
Tue 02:06:50 PM 42.1522 -107.6519 295° West 370 426 32,000  Level Denver Center
Tue 02:07:53 PM 42.1978 -107.7925 294° West 367 422 32,000  Level Salt Lake Center
Tue 02:08:55 PM 42.2389 -107.9128 295° West 370 426 32,000  Level Salt Lake Center
Tue 02:09:57 PM 42.2836 -108.0519 294° West 365 420 32,000  Level Salt Lake Center
Tue 02:10:59 PM 42.3236 -108.1708 295° West 365 420 32,000  Level Salt Lake Center
Tue 02:12:01 PM 42.3694 -108.3125 294° West 368 423 32,000  Level Salt Lake Center
Tue 02:13:02 PM 42.4097 -108.4328 294° West 368 423 32,000  Level Salt Lake Center
Tue 02:14:04 PM 42.4536 -108.5736 293° West 366 421 32,000  Level Salt Lake Center
Tue 02:15:06 PM 42.4925 -108.6917 294° West 362 417 32,000  Level Salt Lake Center
Tue 02:16:08 PM 42.5308 -108.8122 293° West 364 419 32,000  Level Salt Lake Center
Tue 02:17:09 PM 42.5764 -108.9547 294° West 368 423 32,000  Level Salt Lake Center
Tue 02:18:11 PM 42.6142 -109.0733 293° West 362 417 32,000  Level Salt Lake Center
Tue 02:19:13 PM 42.6575 -109.2117 293° West 358 412 32,000  Level Salt Lake Center
Tue 02:20:15 PM 42.6953 -109.3308 293° West 360 414 32,000  Level Salt Lake Center
Tue 02:21:16 PM 42.7394 -109.4703 293° West 360 414 32,000  Level Salt Lake Center
Tue 02:22:18 PM 42.7767 -109.5900 293° West 361 415 32,000  Level Salt Lake Center
Tue 02:23:20 PM 42.8197 -109.7303 293° West 362 417 32,000  Level Salt Lake Center
Tue 02:24:22 PM 42.8569 -109.8497 293° West 360 414 32,000  Level Salt Lake Center
Tue 02:25:23 PM 42.8950 -109.9758 292° West 356 410 32,000  Level Salt Lake Center
Tue 02:26:25 PM 42.9375 -110.1125 293° West 351 404 32,000 -435 Level Salt Lake Center
Tue 02:27:27 PM 42.9703 -110.2228 292° West 351 404 31,100 -919 Descending Salt Lake Center
Tue 02:28:29 PM 43.0092 -110.3508 293° West 356 410 30,100 -1,024 Descending Salt Lake Center
Tue 02:29:30 PM 43.0522 -110.4931 293° West 361 415 29,000 -1,024 Descending Salt Lake Center
Tue 02:30:32 PM 43.0911 -110.6178 293° West 370 426 28,000 -1,306 Descending Salt Lake Center
Tue 02:31:34 PM 43.1344 -110.7631 292° West 370 426 26,300 -1,902 Descending Salt Lake Center
Tue 02:32:35 PM 43.1733 -110.8931 292° West 381 438 24,100 -2,293 Descending Salt Lake Center
Tue 02:33:37 PM 43.2178 -111.0458 292° West 385 443 21,600 -2,274 Descending Salt Lake Center
Tue 02:34:39 PM 43.2536 -111.1697 292° West 374 430 19,400 -2,226 Descending Salt Lake Center
Tue 02:35:41 PM 43.2925 -111.3053 292° West 377 434 17,000 -2,244 Descending Salt Lake Center
Tue 02:36:42 PM 43.3328 -111.4436 292° West 371 427 14,800 -1,902 Descending Salt Lake Center
Tue 02:37:44 PM 43.3647 -111.5506 292° West 347 399 13,100 -1,790 Descending Salt Lake Center
Tue 02:38:46 PM 43.3997 -111.6681 292° West 321 369 11,100 -1,756 Descending Salt Lake Center
Tue 02:39:47 PM 43.4314 -111.7594 296° West 301 346 9,500 -1,268 Descending Salt Lake Center
Tue 02:40:49 PM 43.4794 -111.8408 309° West 265 305 8,500 -774 Descending Salt Lake Center
Tue 02:41:51 PM 43.5119 -111.9000 307° West 235 270 7,900 -581 Descending Salt Lake Center

Login

Don't have an account? Register now (free) for customized features, flight alerts, and more!